| time (UTC) | temp F | wind direction | speed MPH | gust MPH | rain 1hr in | rain 24hr in | rain mn in | humidity % | barometer mb |
| 20260507003002 | 72 | 78 | 1.0 | 10.0 | 0.00 | 0.00 | 0.00 | 58 | 1016.9 |
| 20260507001604 | 73 | 36 | 4.0 | 11.0 | 0.00 | 0.00 | 0.00 | 56 | 1016.8 |
| 20260507000059 | 74 | 122 | 1.0 | 6.0 | 0.00 | 0.00 | 0.00 | 54 | 1016.7 |
| 20260506234558 | 74 | 109 | 2.0 | 11.0 | 0.00 | 0.00 | 0.00 | 54 | 1016.7 |
| 20260506233058 | 74 | 44 | 3.0 | 12.0 | 0.00 | 0.00 | 0.00 | 54 | 1016.8 |
| 20260506231558 | 74 | 108 | 2.0 | 14.0 | 0.00 | 0.00 | 0.00 | 53 | 1016.9 |
| 20260506230051 | 74 | 141 | 2.0 | 13.0 | 0.00 | 0.00 | 0.00 | 52 | 1017.1 |
| 20260506224549 | 74 | 86 | 2.0 | 10.0 | 0.00 | 0.00 | 0.00 | 52 | 1017.2 |
| 20260506223045 | 73 | 85 | 3.0 | 11.0 | 0.00 | 0.00 | 0.00 | 51 | 1017.5 |
| 20260506221543 | 73 | 46 | 1.0 | 14.0 | 0.00 | 0.00 | 0.00 | 52 | 1017.6 |
| 20260506220041 | 73 | 44 | 2.0 | 10.0 | 0.00 | 0.00 | 0.00 | 52 | 1017.8 |
| 20260506214548 | 72 | 86 | 4.0 | 11.0 | 0.00 | 0.02 | 0.00 | 52 | 1018.1 |
| 20260506213036 | 73 | 66 | 3.0 | 9.0 | 0.00 | 0.02 | 0.00 | 52 | 1018.2 |
| 20260506211534 | 72 | 90 | 1.0 | 10.0 | 0.00 | 0.02 | 0.00 | 54 | 1018.3 |
| 20260506210032 | 72 | 78 | 5.0 | 10.0 | 0.00 | 0.02 | 0.00 | 53 | 1018.5 |
| 20260506204529 | 72 | 14 | 1.0 | 6.0 | 0.00 | 0.02 | 0.00 | 53 | 1018.9 |
| 20260506203029 | 71 | 70 | 1.0 | 10.0 | 0.00 | 0.02 | 0.00 | 52 | 1019.0 |
| 20260506201524 | 71 | 104 | 0.0 | 9.0 | 0.00 | 0.02 | 0.00 | 53 | 1019.1 |
| 20260506200022 | 69 | 75 | 4.0 | 11.0 | 0.00 | 0.02 | 0.00 | 57 | 1019.3 |
| 20260506194519 | 68 | 83 | 2.0 | 7.0 | 0.00 | 0.02 | 0.00 | 54 | 1019.5 |
| 20260506193018 | 68 | 49 | 0.0 | 6.0 | 0.00 | 0.02 | 0.00 | 58 | 1019.6 |
| 20260506191517 | 66 | 39 | 6.0 | 11.0 | 0.00 | 0.02 | 0.00 | 57 | 1019.8 |
| 20260506190021 | 66 | 15 | 2.0 | 8.0 | 0.00 | 0.02 | 0.00 | 59 | 1020.0 |
| 20260506184510 | 65 | 112 | 0.0 | 6.0 | 0.00 | 0.02 | 0.00 | 63 | 1020.1 |
| 20260506183008 | 64 | 308 | 3.0 | 7.0 | 0.00 | 0.02 | 0.00 | 62 | 1020.3 |
| 20260506181506 | 64 | 84 | 0.0 | 4.0 | 0.00 | 0.02 | 0.00 | 64 | 1020.4 |
| 20260506180006 | 62 | 300 | 0.0 | 10.0 | 0.00 | 0.02 | 0.00 | 64 | 1020.4 |
| 20260506174501 | 62 | 40 | 0.0 | 6.0 | 0.00 | 0.02 | 0.00 | 66 | 1020.4 |
| 20260506173134 | 61 | 8 | 1.0 | 6.0 | 0.00 | 0.02 | 0.00 | 67 | 1020.3 |
| 20260506171557 | 60 | 351 | 2.0 | 8.0 | 0.00 | 0.02 | 0.00 | 69 | 1020.4 |
| 20260506170054 | 61 | 340 | 1.0 | 5.0 | 0.00 | 0.02 | 0.00 | 67 | 1020.4 |
| 20260506164551 | 59 | 122 | 0.0 | 4.0 | 0.00 | 0.02 | 0.00 | 69 | 1020.3 |
| 20260506163053 | 58 | 300 | 1.0 | 6.0 | 0.00 | 0.02 | 0.00 | 70 | 1020.4 |
| 20260506161553 | 58 | 271 | 0.0 | 6.0 | 0.00 | 0.02 | 0.00 | 69 | 1020.3 |
| 20260506160045 | 58 | 129 | 0.0 | 5.0 | 0.00 | 0.02 | 0.00 | 71 | 1020.4 |
| 20260506154544 | 58 | 68 | 0.0 | 4.0 | 0.00 | 0.02 | 0.00 | 70 | 1020.3 |
| 20260506153041 | 56 | 77 | 0.0 | 4.0 | 0.00 | 0.02 | 0.00 | 73 | 1020.4 |
| 20260506151541 | 57 | 56 | 0.0 | 2.0 | 0.00 | 0.02 | 0.00 | 73 | 1020.4 |
| 20260506150038 | 56 | 27 | 0.0 | 2.0 | 0.00 | 0.02 | 0.00 | 73 | 1020.5 |
| 20260506144551 | 55 | 55 | 0.0 | 1.0 | 0.00 | 0.02 | 0.00 | 74 | 1020.4 |
| 20260506143034 | 55 | 148 | 0.0 | 0.0 | 0.00 | 0.02 | 0.00 | 78 | 1020.3 |
| 20260506141535 | 52 | 131 | 0.0 | 1.0 | 0.00 | 0.02 | 0.00 | 82 | 1020.4 |
| 20260506140024 | 50 | 144 | 0.0 | 0.0 | 0.00 | 0.02 | 0.00 | 84 | 1020.2 |
| 20260506134521 | 48 | 154 | 0.0 | 1.0 | 0.00 | 0.02 | 0.00 | 87 | 1020.1 |
| 20260506133021 | 47 | 141 | 0.0 | 1.0 | 0.00 | 0.02 | 0.00 | 89 | 1019.9 |
| 20260506131523 | 46 | 158 | 0.0 | 1.0 | 0.00 | 0.02 | 0.00 | 89 | 1019.8 |
| 20260506130018 | 46 | 134 | 0.0 | 1.0 | 0.00 | 0.02 | 0.00 | 90 | 1019.6 |
| 20260506124516 | 46 | 128 | 0.0 | 1.0 | 0.00 | 0.02 | 0.00 | 90 | 1019.6 |
| 20260506123016 | 46 | 146 | 0.0 | 1.0 | 0.00 | 0.02 | 0.00 | 90 | 1019.5 |
| 20260506121514 | 46 | 134 | 0.0 | 0.0 | 0.00 | 0.02 | 0.00 | 89 | 1019.4 |
| 20260506120022 | 46 | 154 | 0.0 | 1.0 | 0.00 | 0.02 | 0.00 | 89 | 1019.3 |
| 20260506114513 | 46 | 161 | 0.0 | 0.0 | 0.00 | 0.03 | 0.00 | 89 | 1019.2 |
| 20260506113010 | 46 | 144 | 0.0 | 1.0 | 0.00 | 0.03 | 0.00 | 89 | 1019.4 |
| 20260506111510 | 46 | 164 | 0.0 | 0.0 | 0.00 | 0.03 | 0.00 | 89 | 1019.2 |
| 20260506110012 | 46 | 176 | 0.0 | 0.0 | 0.00 | 0.03 | 0.00 | 88 | 1019.2 |
| 20260506104507 | 46 | 158 | 0.0 | 0.0 | 0.00 | 0.03 | 0.00 | 88 | 1019.2 |
| 20260506103007 | 47 | 180 | 0.0 | 0.0 | 0.00 | 0.03 | 0.00 | 88 | 1019.3 |
| 20260506101506 | 47 | 136 | 0.0 | 1.0 | 0.00 | 0.03 | 0.00 | 88 | 1019.3 |
| 20260506100005 | 47 | 159 | 0.0 | 0.0 | 0.00 | 0.03 | 0.00 | 87 | 1019.3 |
| 20260506094505 | 47 | 173 | 0.0 | 0.0 | 0.00 | 0.06 | 0.00 | 86 | 1019.3 |
| 20260506093006 | 47 | 153 | 0.0 | 0.0 | 0.00 | 0.06 | 0.00 | 87 | 1019.1 |
| 20260506091606 | 47 | 154 | 0.0 | 0.0 | 0.00 | 0.06 | 0.00 | 87 | 1019.3 |
| 20260506090101 | 47 | 165 | 0.0 | 0.0 | 0.00 | 0.06 | 0.00 | 86 | 1019.4 |
| 20260506084600 | 47 | 176 | 0.0 | 0.0 | 0.00 | 0.07 | 0.00 | 86 | 1019.4 |
| 20260506083100 | 48 | 152 | 0.0 | 0.0 | 0.00 | 0.07 | 0.00 | 85 | 1019.6 |
| 20260506081554 | 48 | 141 | 0.0 | 0.0 | 0.00 | 0.07 | 0.00 | 84 | 1019.7 |
| 20260506080105 | 48 | 132 | 0.0 | 0.0 | 0.00 | 0.07 | 0.00 | 84 | 1019.6 |
| 20260506073103 | 49 | 139 | 0.0 | 1.0 | 0.00 | 0.07 | 0.00 | 84 | 1019.6 |
| 20260506071649 | 49 | 131 | 0.0 | 1.0 | 0.00 | 0.07 | 0.00 | 84 | 1019.6 |
| 20260506061541 | 50 | 158 | 0.0 | 1.0 | 0.00 | 0.07 | 0.07 | 84 | 1019.1 |
| 20260506044540 | 51 | 122 | 0.0 | 3.0 | 0.00 | 0.07 | 0.07 | 80 | 1018.3 |
| 20260506043031 | 51 | 165 | 0.0 | 1.0 | 0.00 | 0.07 | 0.07 | 81 | 1018.2 |
| 20260506041539 | 51 | 167 | 0.0 | 0.0 | 0.00 | 0.07 | 0.07 | 80 | 1017.9 |
| 20260506040032 | 52 | 167 | 0.0 | 0.0 | 0.00 | 0.07 | 0.07 | 77 | 1017.7 |
| 20260506034530 | 53 | 119 | 0.0 | 1.0 | 0.00 | 0.07 | 0.07 | 75 | 1017.5 |
| 20260506033023 | 53 | 143 | 0.0 | 0.0 | 0.00 | 0.07 | 0.07 | 75 | 1017.3 |
| 20260506031521 | 55 | 128 | 0.0 | 3.0 | 0.00 | 0.07 | 0.07 | 72 | 1017.0 |
| 20260506030020 | 55 | 129 | 0.0 | 3.0 | 0.00 | 0.07 | 0.07 | 70 | 1016.8 |
| 20260506024519 | 56 | 119 | 0.0 | 4.0 | 0.00 | 0.07 | 0.07 | 68 | 1016.5 |
| 20260506023019 | 56 | 86 | 1.0 | 5.0 | 0.00 | 0.07 | 0.07 | 67 | 1016.3 |
| 20260506021516 | 57 | 72 | 0.0 | 5.0 | 0.00 | 0.07 | 0.07 | 67 | 1016.1 |
| 20260506020014 | 57 | 103 | 0.0 | 6.0 | 0.00 | 0.07 | 0.07 | 68 | 1016.0 |
| 20260506014515 | 58 | 131 | 0.0 | 6.0 | 0.00 | 0.07 | 0.07 | 67 | 1015.8 |
| 20260506013015 | 59 | 98 | 3.0 | 7.0 | 0.00 | 0.07 | 0.07 | 64 | 1015.7 |
| 20260506011531 | 59 | 158 | 2.0 | 11.0 | 0.00 | 0.07 | 0.07 | 64 | 1015.6 |
| 20260506010011 | 59 | 172 | 2.0 | 7.0 | 0.00 | 0.07 | 0.07 | 65 | 1015.5 |
| 20260506004525 | 59 | 99 | 0.0 | 6.0 | 0.00 | 0.07 | 0.07 | 68 | 1015.5 |